الصفحة الرئيسية
METAR-TAF:

METAR-TAF

مطار :

ماناغوا, نيكاراغوا

دائرة عرض: 12-09N, خط طول: 086-10W, ارتفاع: 50 متر

مراقبة الطقس الحالي

تاريخ ووقت الإصدار 6ساعات و 19 دقيقة قبل الساعة 04:00UTC
ريح 10 عقدة من الشرق/الجنوب الشرقي
درجة الحرارة 29°درجة مئوية
الرطوبة 58%
ضغط 1011 hPa
الرؤية 10 كم أو أكثر
غيوم قليلة على ارتفاع 2000 قدم

METAR: MNMG 250400Z 11010KT 9999 FEW020 29/20 Q1010 A2984 NOSIG

زمن: 04:19 (10:19 UTC)

توقعات

تاريخ ووقت الإصدار 8ساعات و 19 دقيقة قبل الساعة 02:00UTC
التوقعات صالحة من25 الساعة 06 UTC إلى 26 الساعة 06 UTC
ريح 12 عقدة من الشرق/الجنوب الشرقي
الرؤية 10 كم أو أكثر
غيوم قليلة على ارتفاع 2000 قدم
أصبح
من 25 الساعة 14 UTC إلى 25 الساعة 18 UTC
ريح 14 عقدة من الشرق
الرؤية 10 كم أو أكثر
الغيوم لا تقل 1500 م ولا وجود لمزنة ركامية السحاب الأسود
من 25 الساعة 2100 UTC
ريح 12 عقدة من الشرق/الشمال الشرقي
الرؤية 10 كم أو أكثر
غيوم قليلة على ارتفاع 2200 قدم

TAF: MNMG 250200Z 2506/2606 11012KT 9999 FEW020 BECMG 2514/2518 10014KT CAVOK FM252100 06012KT 9999 FEW022

أرصاد الطقس والتوقعات من أكثر من 4000 مطار (تقارير الطقس للمطار METAR والتنبؤ بالطقس بالمطارTAF).

المحطات المتاحة هي النقط الصفراء والحمراء على الخريطة.

حرك المؤشر فوق النقطة لمعرفة اسم المحطة.

ثم انقر لمعرفة أرصاد وتوقعات الطقس.

لتغيير الخارطة: اضغط على الأزرار الخضراء مع رمز الصليب الأسود للتكبير. على الزر الأخضر مع شرطة للتصغير، أو على الأسهم الخضراء للخرائط المجاورة.


METAR-TAF: